METAR EVRA 240450Z 22005KT 9999 OVC004 01/00 Q1029 R18/190095 NOSIG =

Controllers Online

PositionControllerOnline
No controllers currently online

Booked ATC Today

Position Start End
EVRA_APP 17:00 21:00
EVRA_TWR 17:00 21:00
EVRR_CTR 17:00 21:00
* Times are UTC

The time is now

UTC: 

Local: 

Latvia vACC on twitter

Official vACC of:

  

Latvia vACC on Facebook